sensor_id;sensor_type;location;lat;lon;timestamp;P1;durP1;ratioP1;P2;durP2;ratioP2
18883;SDS011;9574;47.282;9.640;2023-06-22T00:01:16;8.98;;;4.25;;
18883;SDS011;9574;47.282;9.640;2023-06-22T00:03:42;9.13;;;3.50;;
18883;SDS011;9574;47.282;9.640;2023-06-22T00:06:09;8.80;;;3.75;;
18883;SDS011;9574;47.282;9.640;2023-06-22T00:08:36;8.65;;;3.85;;
18883;SDS011;9574;47.282;9.640;2023-06-22T00:11:03;10.60;;;3.80;;
18883;SDS011;9574;47.282;9.640;2023-06-22T00:13:32;12.10;;;4.15;;
18883;SDS011;9574;47.282;9.640;2023-06-22T00:15:59;7.55;;;3.97;;
18883;SDS011;9574;47.282;9.640;2023-06-22T00:18:25;7.93;;;4.13;;
18883;SDS011;9574;47.282;9.640;2023-06-22T00:20:53;9.57;;;3.30;;
18883;SDS011;9574;47.282;9.640;2023-06-22T00:23:23;11.20;;;3.83;;
18883;SDS011;9574;47.282;9.640;2023-06-22T00:25:50;13.85;;;3.92;;
18883;SDS011;9574;47.282;9.640;2023-06-22T00:28:17;6.82;;;3.17;;
18883;SDS011;9574;47.282;9.640;2023-06-22T00:30:46;7.45;;;3.83;;
18883;SDS011;9574;47.282;9.640;2023-06-22T00:33:13;11.38;;;4.18;;
18883;SDS011;9574;47.282;9.640;2023-06-22T00:35:41;13.77;;;3.47;;
18883;SDS011;9574;47.282;9.640;2023-06-22T00:38:08;7.25;;;3.83;;
18883;SDS011;9574;47.282;9.640;2023-06-22T00:40:35;9.82;;;3.97;;
18883;SDS011;9574;47.282;9.640;2023-06-22T00:43:02;13.48;;;3.53;;
18883;SDS011;9574;47.282;9.640;2023-06-22T00:45:30;10.93;;;3.17;;
18883;SDS011;9574;47.282;9.640;2023-06-22T00:47:58;10.57;;;4.30;;
18883;SDS011;9574;47.282;9.640;2023-06-22T00:50:27;8.02;;;3.53;;
18883;SDS011;9574;47.282;9.640;2023-06-22T00:52:59;8.75;;;3.55;;
18883;SDS011;9574;47.282;9.640;2023-06-22T00:55:33;7.60;;;3.67;;
18883;SDS011;9574;47.282;9.640;2023-06-22T00:58:01;6.82;;;3.22;;
18883;SDS011;9574;47.282;9.640;2023-06-22T01:00:28;8.90;;;3.75;;
18883;SDS011;9574;47.282;9.640;2023-06-22T01:02:55;10.20;;;4.05;;
18883;SDS011;9574;47.282;9.640;2023-06-22T01:05:23;8.68;;;3.47;;
18883;SDS011;9574;47.282;9.640;2023-06-22T01:07:56;12.77;;;4.15;;
18883;SDS011;9574;47.282;9.640;2023-06-22T01:10:33;9.68;;;4.13;;
18883;SDS011;9574;47.282;9.640;2023-06-22T01:13:06;7.93;;;4.22;;
18883;SDS011;9574;47.282;9.640;2023-06-22T01:15:42;6.22;;;3.42;;
18883;SDS011;9574;47.282;9.640;2023-06-22T01:18:14;9.15;;;3.53;;
18883;SDS011;9574;47.282;9.640;2023-06-22T01:20:44;15.25;;;4.50;;
18883;SDS011;9574;47.282;9.640;2023-06-22T01:23:17;10.05;;;3.95;;
18883;SDS011;9574;47.282;9.640;2023-06-22T01:25:55;9.50;;;4.50;;
18883;SDS011;9574;47.282;9.640;2023-06-22T01:31:19;8.70;;;3.80;;
18883;SDS011;9574;47.282;9.640;2023-06-22T01:33:50;7.43;;;3.20;;
18883;SDS011;9574;47.282;9.640;2023-06-22T01:36:19;8.07;;;3.42;;
18883;SDS011;9574;47.282;9.640;2023-06-22T01:38:48;8.68;;;3.70;;
18883;SDS011;9574;47.282;9.640;2023-06-22T01:41:16;14.82;;;4.47;;
18883;SDS011;9574;47.282;9.640;2023-06-22T01:43:43;14.18;;;4.53;;
18883;SDS011;9574;47.282;9.640;2023-06-22T01:46:13;10.82;;;4.05;;
18883;SDS011;9574;47.282;9.640;2023-06-22T01:48:40;10.70;;;4.10;;
18883;SDS011;9574;47.282;9.640;2023-06-22T01:51:07;8.30;;;3.95;;
18883;SDS011;9574;47.282;9.640;2023-06-22T01:53:34;9.15;;;4.05;;
18883;SDS011;9574;47.282;9.640;2023-06-22T01:56:01;10.10;;;3.67;;
18883;SDS011;9574;47.282;9.640;2023-06-22T01:58:29;10.50;;;4.03;;
18883;SDS011;9574;47.282;9.640;2023-06-22T02:00:58;8.80;;;4.00;;
18883;SDS011;9574;47.282;9.640;2023-06-22T02:03:34;7.35;;;3.90;;
18883;SDS011;9574;47.282;9.640;2023-06-22T02:06:04;10.02;;;4.40;;
18883;SDS011;9574;47.282;9.640;2023-06-22T02:08:36;11.40;;;3.38;;
18883;SDS011;9574;47.282;9.640;2023-06-22T02:11:08;9.80;;;3.42;;
18883;SDS011;9574;47.282;9.640;2023-06-22T02:13:36;14.60;;;3.78;;
18883;SDS011;9574;47.282;9.640;2023-06-22T02:16:07;6.75;;;3.30;;
18883;SDS011;9574;47.282;9.640;2023-06-22T02:18:37;10.85;;;3.88;;
18883;SDS011;9574;47.282;9.640;2023-06-22T02:21:05;10.68;;;3.05;;
18883;SDS011;9574;47.282;9.640;2023-06-22T02:23:32;9.15;;;3.22;;
18883;SDS011;9574;47.282;9.640;2023-06-22T02:26:00;8.07;;;3.58;;
18883;SDS011;9574;47.282;9.640;2023-06-22T02:28:28;8.15;;;3.47;;
18883;SDS011;9574;47.282;9.640;2023-06-22T02:30:55;12.13;;;3.58;;
18883;SDS011;9574;47.282;9.640;2023-06-22T02:33:22;10.60;;;3.75;;
18883;SDS011;9574;47.282;9.640;2023-06-22T02:35:50;10.48;;;3.45;;
18883;SDS011;9574;47.282;9.640;2023-06-22T02:38:18;6.00;;;3.30;;
18883;SDS011;9574;47.282;9.640;2023-06-22T02:40:45;12.93;;;3.92;;
18883;SDS011;9574;47.282;9.640;2023-06-22T02:43:12;9.02;;;3.13;;
18883;SDS011;9574;47.282;9.640;2023-06-22T02:45:39;8.05;;;3.70;;
18883;SDS011;9574;47.282;9.640;2023-06-22T02:48:06;6.18;;;3.92;;
18883;SDS011;9574;47.282;9.640;2023-06-22T02:50:33;9.63;;;3.65;;
18883;SDS011;9574;47.282;9.640;2023-06-22T02:53:01;11.77;;;3.95;;
18883;SDS011;9574;47.282;9.640;2023-06-22T02:55:28;13.82;;;3.85;;
18883;SDS011;9574;47.282;9.640;2023-06-22T02:57:56;10.82;;;3.83;;
18883;SDS011;9574;47.282;9.640;2023-06-22T03:00:24;10.35;;;4.07;;
18883;SDS011;9574;47.282;9.640;2023-06-22T03:02:55;8.10;;;4.05;;
18883;SDS011;9574;47.282;9.640;2023-06-22T03:05:23;10.57;;;4.47;;
18883;SDS011;9574;47.282;9.640;2023-06-22T03:07:51;10.77;;;3.95;;
18883;SDS011;9574;47.282;9.640;2023-06-22T03:10:19;10.45;;;4.43;;
18883;SDS011;9574;47.282;9.640;2023-06-22T03:12:46;7.55;;;4.13;;
18883;SDS011;9574;47.282;9.640;2023-06-22T03:15:13;6.90;;;4.13;;
18883;SDS011;9574;47.282;9.640;2023-06-22T03:17:42;9.70;;;4.80;;
18883;SDS011;9574;47.282;9.640;2023-06-22T03:20:09;8.80;;;4.28;;
18883;SDS011;9574;47.282;9.640;2023-06-22T03:22:37;9.48;;;4.40;;
18883;SDS011;9574;47.282;9.640;2023-06-22T03:25:05;10.88;;;4.65;;
18883;SDS011;9574;47.282;9.640;2023-06-22T03:27:39;10.52;;;4.78;;
18883;SDS011;9574;47.282;9.640;2023-06-22T03:30:07;8.75;;;4.45;;
18883;SDS011;9574;47.282;9.640;2023-06-22T03:32:36;13.27;;;4.57;;
18883;SDS011;9574;47.282;9.640;2023-06-22T03:35:03;11.02;;;4.47;;
18883;SDS011;9574;47.282;9.640;2023-06-22T03:37:31;10.07;;;4.53;;
18883;SDS011;9574;47.282;9.640;2023-06-22T03:39:58;12.10;;;4.32;;
18883;SDS011;9574;47.282;9.640;2023-06-22T03:42:25;9.23;;;4.10;;
18883;SDS011;9574;47.282;9.640;2023-06-22T03:44:53;13.85;;;4.10;;
18883;SDS011;9574;47.282;9.640;2023-06-22T03:47:20;9.65;;;4.13;;
18883;SDS011;9574;47.282;9.640;2023-06-22T03:49:48;11.85;;;4.18;;
18883;SDS011;9574;47.282;9.640;2023-06-22T03:52:20;7.85;;;4.60;;
18883;SDS011;9574;47.282;9.640;2023-06-22T03:54:47;8.90;;;4.88;;
18883;SDS011;9574;47.282;9.640;2023-06-22T03:57:14;11.77;;;5.07;;
18883;SDS011;9574;47.282;9.640;2023-06-22T03:59:41;8.73;;;4.35;;
18883;SDS011;9574;47.282;9.640;2023-06-22T04:02:09;9.18;;;4.93;;
18883;SDS011;9574;47.282;9.640;2023-06-22T04:04:36;8.60;;;4.45;;
18883;SDS011;9574;47.282;9.640;2023-06-22T04:07:04;10.73;;;4.72;;
18883;SDS011;9574;47.282;9.640;2023-06-22T04:09:31;10.40;;;5.05;;
18883;SDS011;9574;47.282;9.640;2023-06-22T04:11:58;7.50;;;5.07;;
18883;SDS011;9574;47.282;9.640;2023-06-22T04:14:25;11.73;;;5.18;;
18883;SDS011;9574;47.282;9.640;2023-06-22T04:16:52;12.18;;;4.70;;
18883;SDS011;9574;47.282;9.640;2023-06-22T04:19:20;10.55;;;4.72;;
18883;SDS011;9574;47.282;9.640;2023-06-22T04:21:47;9.35;;;4.82;;
18883;SDS011;9574;47.282;9.640;2023-06-22T04:24:14;9.43;;;4.60;;
18883;SDS011;9574;47.282;9.640;2023-06-22T04:26:41;10.48;;;4.75;;
18883;SDS011;9574;47.282;9.640;2023-06-22T04:29:10;8.05;;;4.20;;
18883;SDS011;9574;47.282;9.640;2023-06-22T04:31:37;11.25;;;5.07;;
18883;SDS011;9574;47.282;9.640;2023-06-22T04:34:05;10.98;;;4.07;;
18883;SDS011;9574;47.282;9.640;2023-06-22T04:36:37;7.32;;;4.70;;
18883;SDS011;9574;47.282;9.640;2023-06-22T04:39:06;9.18;;;4.55;;
18883;SDS011;9574;47.282;9.640;2023-06-22T04:41:35;8.55;;;4.53;;
18883;SDS011;9574;47.282;9.640;2023-06-22T04:44:11;7.55;;;4.50;;
18883;SDS011;9574;47.282;9.640;2023-06-22T04:46:38;10.85;;;5.25;;
18883;SDS011;9574;47.282;9.640;2023-06-22T04:49:05;10.80;;;5.25;;
18883;SDS011;9574;47.282;9.640;2023-06-22T04:51:37;9.68;;;4.97;;
18883;SDS011;9574;47.282;9.640;2023-06-22T04:54:06;9.63;;;4.85;;
18883;SDS011;9574;47.282;9.640;2023-06-22T04:56:33;15.82;;;5.43;;
18883;SDS011;9574;47.282;9.640;2023-06-22T04:59:00;12.82;;;4.93;;
18883;SDS011;9574;47.282;9.640;2023-06-22T05:01:28;10.45;;;5.70;;
18883;SDS011;9574;47.282;9.640;2023-06-22T05:03:56;12.25;;;6.18;;
18883;SDS011;9574;47.282;9.640;2023-06-22T05:06:26;8.98;;;4.88;;
18883;SDS011;9574;47.282;9.640;2023-06-22T05:08:55;10.73;;;5.28;;
18883;SDS011;9574;47.282;9.640;2023-06-22T05:11:23;13.18;;;6.18;;
18883;SDS011;9574;47.282;9.640;2023-06-22T05:13:51;11.32;;;5.88;;
18883;SDS011;9574;47.282;9.640;2023-06-22T05:16:18;13.40;;;5.40;;
18883;SDS011;9574;47.282;9.640;2023-06-22T05:18:48;10.70;;;4.88;;
18883;SDS011;9574;47.282;9.640;2023-06-22T05:21:16;10.65;;;4.97;;
18883;SDS011;9574;47.282;9.640;2023-06-22T05:23:44;9.68;;;5.45;;
18883;SDS011;9574;47.282;9.640;2023-06-22T05:26:12;13.35;;;5.85;;
18883;SDS011;9574;47.282;9.640;2023-06-22T05:28:39;11.85;;;5.57;;
18883;SDS011;9574;47.282;9.640;2023-06-22T05:31:06;9.68;;;5.35;;
18883;SDS011;9574;47.282;9.640;2023-06-22T05:33:33;10.65;;;5.55;;
18883;SDS011;9574;47.282;9.640;2023-06-22T05:36:00;12.18;;;5.75;;
18883;SDS011;9574;47.282;9.640;2023-06-22T05:38:27;10.27;;;5.65;;
18883;SDS011;9574;47.282;9.640;2023-06-22T05:40:54;11.70;;;5.75;;
18883;SDS011;9574;47.282;9.640;2023-06-22T05:43:22;13.57;;;6.22;;
18883;SDS011;9574;47.282;9.640;2023-06-22T05:45:49;13.15;;;6.13;;
18883;SDS011;9574;47.282;9.640;2023-06-22T05:48:16;13.98;;;5.38;;
18883;SDS011;9574;47.282;9.640;2023-06-22T05:50:43;15.75;;;5.82;;
18883;SDS011;9574;47.282;9.640;2023-06-22T05:53:10;13.65;;;5.10;;
18883;SDS011;9574;47.282;9.640;2023-06-22T05:55:37;10.90;;;6.07;;
18883;SDS011;9574;47.282;9.640;2023-06-22T05:58:04;10.25;;;5.88;;
18883;SDS011;9574;47.282;9.640;2023-06-22T06:00:33;12.13;;;5.95;;
18883;SDS011;9574;47.282;9.640;2023-06-22T06:03:00;13.02;;;5.55;;
18883;SDS011;9574;47.282;9.640;2023-06-22T06:05:28;14.35;;;5.60;;
18883;SDS011;9574;47.282;9.640;2023-06-22T06:07:55;16.92;;;6.30;;
18883;SDS011;9574;47.282;9.640;2023-06-22T06:10:22;11.05;;;5.68;;
18883;SDS011;9574;47.282;9.640;2023-06-22T06:12:50;13.38;;;5.70;;
18883;SDS011;9574;47.282;9.640;2023-06-22T06:15:17;12.95;;;5.57;;
18883;SDS011;9574;47.282;9.640;2023-06-22T06:17:48;11.80;;;5.82;;
18883;SDS011;9574;47.282;9.640;2023-06-22T06:20:18;14.27;;;6.25;;
18883;SDS011;9574;47.282;9.640;2023-06-22T06:22:45;13.00;;;5.35;;
18883;SDS011;9574;47.282;9.640;2023-06-22T06:25:12;13.40;;;5.68;;
18883;SDS011;9574;47.282;9.640;2023-06-22T06:27:42;11.50;;;6.15;;
18883;SDS011;9574;47.282;9.640;2023-06-22T06:30:10;11.93;;;5.38;;
18883;SDS011;9574;47.282;9.640;2023-06-22T06:32:37;9.07;;;5.07;;
18883;SDS011;9574;47.282;9.640;2023-06-22T06:35:07;14.00;;;6.07;;
18883;SDS011;9574;47.282;9.640;2023-06-22T06:37:36;13.80;;;5.50;;
18883;SDS011;9574;47.282;9.640;2023-06-22T06:40:04;12.32;;;6.10;;
18883;SDS011;9574;47.282;9.640;2023-06-22T06:42:35;12.57;;;4.72;;
18883;SDS011;9574;47.282;9.640;2023-06-22T06:45:05;12.50;;;4.90;;
18883;SDS011;9574;47.282;9.640;2023-06-22T06:47:33;14.40;;;4.93;;
18883;SDS011;9574;47.282;9.640;2023-06-22T06:50:00;15.77;;;5.38;;
18883;SDS011;9574;47.282;9.640;2023-06-22T06:52:28;15.82;;;5.75;;
18883;SDS011;9574;47.282;9.640;2023-06-22T06:54:55;13.45;;;4.97;;
18883;SDS011;9574;47.282;9.640;2023-06-22T06:57:22;10.20;;;5.40;;
18883;SDS011;9574;47.282;9.640;2023-06-22T06:59:54;9.70;;;4.88;;
18883;SDS011;9574;47.282;9.640;2023-06-22T07:02:22;12.55;;;5.18;;
18883;SDS011;9574;47.282;9.640;2023-06-22T07:04:49;11.52;;;5.38;;
18883;SDS011;9574;47.282;9.640;2023-06-22T07:07:16;14.43;;;5.53;;
18883;SDS011;9574;47.282;9.640;2023-06-22T07:09:45;13.52;;;5.50;;
18883;SDS011;9574;47.282;9.640;2023-06-22T07:12:11;10.60;;;4.82;;
18883;SDS011;9574;47.282;9.640;2023-06-22T07:14:38;10.15;;;5.70;;
18883;SDS011;9574;47.282;9.640;2023-06-22T07:17:05;14.23;;;5.55;;
18883;SDS011;9574;47.282;9.640;2023-06-22T07:19:32;14.63;;;5.35;;
18883;SDS011;9574;47.282;9.640;2023-06-22T07:22:00;15.88;;;5.28;;
18883;SDS011;9574;47.282;9.640;2023-06-22T07:24:27;12.27;;;5.22;;
18883;SDS011;9574;47.282;9.640;2023-06-22T07:26:55;12.68;;;5.22;;
18883;SDS011;9574;47.282;9.640;2023-06-22T07:29:24;13.70;;;4.97;;
18883;SDS011;9574;47.282;9.640;2023-06-22T07:31:51;10.70;;;5.25;;
18883;SDS011;9574;47.282;9.640;2023-06-22T07:34:21;8.90;;;4.45;;
18883;SDS011;9574;47.282;9.640;2023-06-22T07:36:48;11.77;;;4.97;;
18883;SDS011;9574;47.282;9.640;2023-06-22T07:39:15;7.78;;;4.80;;
18883;SDS011;9574;47.282;9.640;2023-06-22T07:41:42;11.40;;;5.38;;
18883;SDS011;9574;47.282;9.640;2023-06-22T07:44:11;9.20;;;4.40;;
18883;SDS011;9574;47.282;9.640;2023-06-22T07:46:38;9.10;;;4.85;;
18883;SDS011;9574;47.282;9.640;2023-06-22T07:49:05;12.80;;;4.32;;
18883;SDS011;9574;47.282;9.640;2023-06-22T07:51:33;13.10;;;5.00;;
18883;SDS011;9574;47.282;9.640;2023-06-22T07:54:00;6.93;;;3.97;;
18883;SDS011;9574;47.282;9.640;2023-06-22T07:56:27;9.82;;;4.53;;
18883;SDS011;9574;47.282;9.640;2023-06-22T07:58:54;16.52;;;4.47;;
18883;SDS011;9574;47.282;9.640;2023-06-22T08:01:24;12.70;;;4.70;;
18883;SDS011;9574;47.282;9.640;2023-06-22T08:03:51;15.20;;;5.50;;
18883;SDS011;9574;47.282;9.640;2023-06-22T08:06:18;10.38;;;4.00;;
18883;SDS011;9574;47.282;9.640;2023-06-22T08:08:45;23.42;;;4.85;;
18883;SDS011;9574;47.282;9.640;2023-06-22T08:11:14;11.35;;;4.57;;
18883;SDS011;9574;47.282;9.640;2023-06-22T08:13:41;9.10;;;4.25;;
18883;SDS011;9574;47.282;9.640;2023-06-22T08:16:08;11.43;;;4.50;;
18883;SDS011;9574;47.282;9.640;2023-06-22T08:18:36;11.55;;;4.68;;
18883;SDS011;9574;47.282;9.640;2023-06-22T08:21:03;10.52;;;4.25;;
18883;SDS011;9574;47.282;9.640;2023-06-22T08:23:30;10.35;;;4.57;;
18883;SDS011;9574;47.282;9.640;2023-06-22T08:25:57;17.35;;;4.97;;
18883;SDS011;9574;47.282;9.640;2023-06-22T08:28:24;12.73;;;4.93;;
18883;SDS011;9574;47.282;9.640;2023-06-22T08:30:51;11.38;;;5.00;;
18883;SDS011;9574;47.282;9.640;2023-06-22T08:33:20;13.18;;;5.20;;
18883;SDS011;9574;47.282;9.640;2023-06-22T08:35:55;11.27;;;5.22;;
18883;SDS011;9574;47.282;9.640;2023-06-22T08:38:22;12.30;;;4.65;;
18883;SDS011;9574;47.282;9.640;2023-06-22T08:40:49;16.40;;;5.32;;
18883;SDS011;9574;47.282;9.640;2023-06-22T08:43:17;11.95;;;5.20;;
18883;SDS011;9574;47.282;9.640;2023-06-22T08:45:44;11.15;;;4.78;;
18883;SDS011;9574;47.282;9.640;2023-06-22T08:48:11;8.98;;;4.28;;
18883;SDS011;9574;47.282;9.640;2023-06-22T08:50:37;16.63;;;5.13;;
18883;SDS011;9574;47.282;9.640;2023-06-22T08:53:06;9.10;;;4.28;;
18883;SDS011;9574;47.282;9.640;2023-06-22T08:55:34;15.23;;;4.07;;
18883;SDS011;9574;47.282;9.640;2023-06-22T08:58:01;9.38;;;4.68;;
18883;SDS011;9574;47.282;9.640;2023-06-22T09:00:28;11.57;;;5.78;;
18883;SDS011;9574;47.282;9.640;2023-06-22T09:02:58;13.38;;;5.80;;
18883;SDS011;9574;47.282;9.640;2023-06-22T09:05:25;15.93;;;5.82;;
18883;SDS011;9574;47.282;9.640;2023-06-22T09:07:52;13.70;;;6.00;;
18883;SDS011;9574;47.282;9.640;2023-06-22T09:10:21;11.85;;;5.38;;
18883;SDS011;9574;47.282;9.640;2023-06-22T09:12:48;12.65;;;5.30;;
18883;SDS011;9574;47.282;9.640;2023-06-22T09:15:15;13.27;;;4.75;;
18883;SDS011;9574;47.282;9.640;2023-06-22T09:17:42;12.25;;;4.95;;
18883;SDS011;9574;47.282;9.640;2023-06-22T09:20:11;9.85;;;4.68;;
18883;SDS011;9574;47.282;9.640;2023-06-22T09:22:38;14.18;;;4.47;;
18883;SDS011;9574;47.282;9.640;2023-06-22T09:25:05;13.32;;;4.60;;
18883;SDS011;9574;47.282;9.640;2023-06-22T09:27:34;11.50;;;4.90;;
18883;SDS011;9574;47.282;9.640;2023-06-22T09:30:01;15.60;;;4.38;;
18883;SDS011;9574;47.282;9.640;2023-06-22T09:32:28;13.52;;;4.93;;
18883;SDS011;9574;47.282;9.640;2023-06-22T09:34:55;12.80;;;4.38;;
18883;SDS011;9574;47.282;9.640;2023-06-22T09:37:22;9.82;;;4.82;;
18883;SDS011;9574;47.282;9.640;2023-06-22T09:39:52;7.80;;;3.83;;
18883;SDS011;9574;47.282;9.640;2023-06-22T09:42:19;10.15;;;4.93;;
18883;SDS011;9574;47.282;9.640;2023-06-22T09:44:47;11.75;;;5.00;;
18883;SDS011;9574;47.282;9.640;2023-06-22T09:47:14;9.07;;;4.30;;
18883;SDS011;9574;47.282;9.640;2023-06-22T09:49:41;10.30;;;5.07;;
18883;SDS011;9574;47.282;9.640;2023-06-22T09:52:08;8.27;;;4.13;;
18883;SDS011;9574;47.282;9.640;2023-06-22T09:54:36;9.10;;;4.68;;
18883;SDS011;9574;47.282;9.640;2023-06-22T09:57:03;9.18;;;4.38;;
18883;SDS011;9574;47.282;9.640;2023-06-22T09:59:30;10.13;;;4.80;;
18883;SDS011;9574;47.282;9.640;2023-06-22T10:01:59;14.10;;;5.03;;
18883;SDS011;9574;47.282;9.640;2023-06-22T10:04:26;9.57;;;4.60;;
18883;SDS011;9574;47.282;9.640;2023-06-22T10:06:53;11.00;;;4.95;;
18883;SDS011;9574;47.282;9.640;2023-06-22T10:09:19;9.80;;;4.97;;
18883;SDS011;9574;47.282;9.640;2023-06-22T10:11:46;13.07;;;5.55;;
18883;SDS011;9574;47.282;9.640;2023-06-22T10:14:13;14.52;;;5.97;;
18883;SDS011;9574;47.282;9.640;2023-06-22T10:16:41;9.45;;;5.45;;
18883;SDS011;9574;47.282;9.640;2023-06-22T10:19:10;17.15;;;5.57;;
18883;SDS011;9574;47.282;9.640;2023-06-22T10:21:37;14.23;;;5.45;;
18883;SDS011;9574;47.282;9.640;2023-06-22T10:24:04;11.30;;;5.43;;
18883;SDS011;9574;47.282;9.640;2023-06-22T10:26:32;10.38;;;4.45;;
18883;SDS011;9574;47.282;9.640;2023-06-22T10:28:59;13.23;;;4.90;;
18883;SDS011;9574;47.282;9.640;2023-06-22T10:31:26;11.88;;;4.63;;
18883;SDS011;9574;47.282;9.640;2023-06-22T10:33:53;10.32;;;5.05;;
18883;SDS011;9574;47.282;9.640;2023-06-22T10:36:22;11.32;;;5.47;;
18883;SDS011;9574;47.282;9.640;2023-06-22T10:38:49;10.48;;;4.63;;
18883;SDS011;9574;47.282;9.640;2023-06-22T10:41:17;11.82;;;4.95;;
18883;SDS011;9574;47.282;9.640;2023-06-22T10:43:44;10.98;;;4.72;;
18883;SDS011;9574;47.282;9.640;2023-06-22T10:46:12;17.10;;;5.35;;
18883;SDS011;9574;47.282;9.640;2023-06-22T10:48:39;11.35;;;4.70;;
18883;SDS011;9574;47.282;9.640;2023-06-22T10:51:06;8.25;;;5.10;;
18883;SDS011;9574;47.282;9.640;2023-06-22T10:53:34;13.60;;;5.25;;
18883;SDS011;9574;47.282;9.640;2023-06-22T10:56:01;8.75;;;4.95;;
18883;SDS011;9574;47.282;9.640;2023-06-22T10:58:28;8.68;;;5.20;;
18883;SDS011;9574;47.282;9.640;2023-06-22T11:00:55;9.82;;;5.18;;
18883;SDS011;9574;47.282;9.640;2023-06-22T11:03:22;9.85;;;4.82;;
18883;SDS011;9574;47.282;9.640;2023-06-22T11:05:49;10.70;;;5.72;;
18883;SDS011;9574;47.282;9.640;2023-06-22T11:08:16;15.07;;;5.45;;
18883;SDS011;9574;47.282;9.640;2023-06-22T11:10:44;12.20;;;6.38;;
18883;SDS011;9574;47.282;9.640;2023-06-22T11:13:11;15.40;;;5.97;;
18883;SDS011;9574;47.282;9.640;2023-06-22T11:15:38;13.10;;;5.43;;
18883;SDS011;9574;47.282;9.640;2023-06-22T11:18:05;11.90;;;5.53;;
18883;SDS011;9574;47.282;9.640;2023-06-22T11:20:33;15.50;;;5.03;;
18883;SDS011;9574;47.282;9.640;2023-06-22T11:23:03;16.92;;;6.18;;
18883;SDS011;9574;47.282;9.640;2023-06-22T11:25:31;11.90;;;6.25;;
18883;SDS011;9574;47.282;9.640;2023-06-22T11:28:01;10.93;;;6.38;;
18883;SDS011;9574;47.282;9.640;2023-06-22T11:30:28;15.48;;;7.00;;
18883;SDS011;9574;47.282;9.640;2023-06-22T11:32:56;10.85;;;6.30;;
18883;SDS011;9574;47.282;9.640;2023-06-22T11:35:23;13.95;;;6.13;;
18883;SDS011;9574;47.282;9.640;2023-06-22T11:37:50;14.95;;;6.40;;
18883;SDS011;9574;47.282;9.640;2023-06-22T11:40:17;12.90;;;6.13;;
18883;SDS011;9574;47.282;9.640;2023-06-22T11:42:44;12.05;;;6.05;;
18883;SDS011;9574;47.282;9.640;2023-06-22T11:45:14;17.83;;;6.38;;
18883;SDS011;9574;47.282;9.640;2023-06-22T11:47:42;12.65;;;5.63;;
18883;SDS011;9574;47.282;9.640;2023-06-22T11:50:09;13.50;;;5.82;;
18883;SDS011;9574;47.282;9.640;2023-06-22T11:52:36;21.55;;;7.40;;
18883;SDS011;9574;47.282;9.640;2023-06-22T11:55:04;9.70;;;6.63;;
18883;SDS011;9574;47.282;9.640;2023-06-22T11:57:32;12.13;;;6.13;;
18883;SDS011;9574;47.282;9.640;2023-06-22T12:00:00;14.65;;;7.25;;
18883;SDS011;9574;47.282;9.640;2023-06-22T12:02:32;16.77;;;6.63;;
18883;SDS011;9574;47.282;9.640;2023-06-22T12:04:59;16.70;;;8.18;;
18883;SDS011;9574;47.282;9.640;2023-06-22T12:07:27;10.25;;;6.03;;
18883;SDS011;9574;47.282;9.640;2023-06-22T12:09:54;12.95;;;5.93;;
18883;SDS011;9574;47.282;9.640;2023-06-22T12:12:21;13.48;;;6.55;;
18883;SDS011;9574;47.282;9.640;2023-06-22T12:14:48;18.80;;;6.97;;
18883;SDS011;9574;47.282;9.640;2023-06-22T12:17:15;14.43;;;6.85;;
18883;SDS011;9574;47.282;9.640;2023-06-22T12:19:43;14.20;;;6.88;;
18883;SDS011;9574;47.282;9.640;2023-06-22T12:22:10;10.50;;;6.20;;
18883;SDS011;9574;47.282;9.640;2023-06-22T12:24:37;13.18;;;5.57;;
18883;SDS011;9574;47.282;9.640;2023-06-22T12:27:04;13.18;;;6.40;;
18883;SDS011;9574;47.282;9.640;2023-06-22T12:29:31;15.02;;;7.22;;
18883;SDS011;9574;47.282;9.640;2023-06-22T12:31:58;15.93;;;6.78;;
18883;SDS011;9574;47.282;9.640;2023-06-22T12:34:25;16.02;;;6.57;;
18883;SDS011;9574;47.282;9.640;2023-06-22T12:36:53;11.27;;;5.90;;
18883;SDS011;9574;47.282;9.640;2023-06-22T12:39:20;9.75;;;6.57;;
18883;SDS011;9574;47.282;9.640;2023-06-22T12:41:47;14.20;;;6.65;;
18883;SDS011;9574;47.282;9.640;2023-06-22T12:44:14;15.07;;;6.70;;
18883;SDS011;9574;47.282;9.640;2023-06-22T12:46:41;15.15;;;7.00;;
18883;SDS011;9574;47.282;9.640;2023-06-22T12:49:08;10.68;;;6.82;;
18883;SDS011;9574;47.282;9.640;2023-06-22T12:51:39;18.45;;;7.00;;
18883;SDS011;9574;47.282;9.640;2023-06-22T12:54:08;10.43;;;6.05;;
18883;SDS011;9574;47.282;9.640;2023-06-22T12:56:36;11.75;;;6.38;;
18883;SDS011;9574;47.282;9.640;2023-06-22T12:59:04;12.95;;;6.65;;
18883;SDS011;9574;47.282;9.640;2023-06-22T13:01:31;15.63;;;6.43;;
18883;SDS011;9574;47.282;9.640;2023-06-22T13:03:58;13.90;;;6.25;;
18883;SDS011;9574;47.282;9.640;2023-06-22T13:06:25;13.93;;;6.55;;
18883;SDS011;9574;47.282;9.640;2023-06-22T13:08:52;14.23;;;6.57;;
18883;SDS011;9574;47.282;9.640;2023-06-22T13:11:21;18.88;;;6.88;;
18883;SDS011;9574;47.282;9.640;2023-06-22T13:13:47;11.75;;;6.00;;
18883;SDS011;9574;47.282;9.640;2023-06-22T13:16:15;13.77;;;6.00;;
18883;SDS011;9574;47.282;9.640;2023-06-22T13:18:42;19.45;;;7.30;;
18883;SDS011;9574;47.282;9.640;2023-06-22T13:21:09;14.23;;;6.20;;
18883;SDS011;9574;47.282;9.640;2023-06-22T13:23:36;15.88;;;5.53;;
18883;SDS011;9574;47.282;9.640;2023-06-22T13:26:03;23.75;;;7.18;;
18883;SDS011;9574;47.282;9.640;2023-06-22T13:28:31;11.75;;;5.75;;
18883;SDS011;9574;47.282;9.640;2023-06-22T13:30:59;11.85;;;6.30;;
18883;SDS011;9574;47.282;9.640;2023-06-22T13:33:35;9.60;;;5.43;;
18883;SDS011;9574;47.282;9.640;2023-06-22T13:36:03;13.32;;;5.90;;
18883;SDS011;9574;47.282;9.640;2023-06-22T13:38:31;15.27;;;4.93;;
18883;SDS011;9574;47.282;9.640;2023-06-22T13:40:58;9.10;;;4.30;;
18883;SDS011;9574;47.282;9.640;2023-06-22T13:43:26;12.57;;;4.30;;
18883;SDS011;9574;47.282;9.640;2023-06-22T13:45:54;17.52;;;5.15;;
18883;SDS011;9574;47.282;9.640;2023-06-22T13:48:21;13.77;;;3.75;;
18883;SDS011;9574;47.282;9.640;2023-06-22T13:50:50;10.07;;;3.97;;
18883;SDS011;9574;47.282;9.640;2023-06-22T13:53:17;13.75;;;3.58;;
18883;SDS011;9574;47.282;9.640;2023-06-22T13:55:44;12.88;;;3.58;;
18883;SDS011;9574;47.282;9.640;2023-06-22T13:58:12;7.88;;;3.33;;
18883;SDS011;9574;47.282;9.640;2023-06-22T14:00:40;9.55;;;3.75;;
18883;SDS011;9574;47.282;9.640;2023-06-22T14:03:08;11.00;;;3.67;;
18883;SDS011;9574;47.282;9.640;2023-06-22T14:05:35;12.55;;;3.53;;
18883;SDS011;9574;47.282;9.640;2023-06-22T14:08:02;7.22;;;3.58;;
18883;SDS011;9574;47.282;9.640;2023-06-22T14:10:29;17.25;;;3.30;;
18883;SDS011;9574;47.282;9.640;2023-06-22T14:12:56;11.32;;;3.78;;
18883;SDS011;9574;47.282;9.640;2023-06-22T14:15:25;13.02;;;4.28;;
18883;SDS011;9574;47.282;9.640;2023-06-22T14:17:52;11.50;;;3.88;;
18883;SDS011;9574;47.282;9.640;2023-06-22T14:20:20;9.50;;;3.83;;
18883;SDS011;9574;47.282;9.640;2023-06-22T14:22:47;11.18;;;3.35;;
18883;SDS011;9574;47.282;9.640;2023-06-22T14:25:14;9.23;;;3.47;;
18883;SDS011;9574;47.282;9.640;2023-06-22T14:27:41;9.57;;;3.00;;
18883;SDS011;9574;47.282;9.640;2023-06-22T14:30:09;10.50;;;3.50;;
18883;SDS011;9574;47.282;9.640;2023-06-22T14:32:36;8.35;;;3.75;;
18883;SDS011;9574;47.282;9.640;2023-06-22T14:35:04;10.15;;;4.15;;
18883;SDS011;9574;47.282;9.640;2023-06-22T14:37:32;15.07;;;4.57;;
18883;SDS011;9574;47.282;9.640;2023-06-22T14:39:59;8.27;;;3.75;;
18883;SDS011;9574;47.282;9.640;2023-06-22T14:42:26;10.93;;;3.80;;
18883;SDS011;9574;47.282;9.640;2023-06-22T14:44:55;8.38;;;4.00;;
18883;SDS011;9574;47.282;9.640;2023-06-22T14:47:22;13.18;;;4.63;;
18883;SDS011;9574;47.282;9.640;2023-06-22T14:49:49;12.00;;;3.72;;
18883;SDS011;9574;47.282;9.640;2023-06-22T14:52:16;13.57;;;4.75;;
18883;SDS011;9574;47.282;9.640;2023-06-22T14:54:45;16.70;;;3.90;;
18883;SDS011;9574;47.282;9.640;2023-06-22T14:57:12;10.65;;;3.75;;
18883;SDS011;9574;47.282;9.640;2023-06-22T14:59:43;9.05;;;4.25;;